Archival Weather

Granbury Rgnl

Granbury, Texas (KGDJ)

Report from: Monday, January 29, 2024 11:55 AM UTC
Current time: Tuesday, June 18, 2024 11:47 AM UTC

Current weather – Weather history – Daily summaries
Weather forecast

Temperature2.2°C (36.0°F)
Dew point1.4°C (34.5°F)
Winds Calm
Visibility10 mi. (16.1 km)
Clouds Sky clear
Altimeter30.34 in.Hg (1027 mB)
Relative humidity94 %
Density altitude-1,937 ft. (-591 m)
Remarks Fully automated report
Automated weather observing station with precipitation discriminator
Flight conditions Visual Meteorological Conditions
Raw dataKGDJ 291155Z AUTO 00000KT 10SM CLR 02/01 A3034 RMK AO2 T00220014 10049 20016
An error has occurred. This application may no longer respond until reloaded. Reload 🗙